createdAt,value
2022-11-17T00:00:42.972Z,9.77
2022-11-17T00:03:14.586Z,9.67
2022-11-17T00:05:46.283Z,9.15
2022-11-17T00:08:14.127Z,9.06
2022-11-17T00:10:41.905Z,9.25
2022-11-17T00:13:28.815Z,9.51
2022-11-17T00:15:56.626Z,9.52
2022-11-17T00:18:42.189Z,9.70
2022-11-17T00:21:21.450Z,9.53
2022-11-17T00:23:50.560Z,9.58
2022-11-17T00:26:22.834Z,9.57
2022-11-17T00:28:54.425Z,9.72
2022-11-17T00:31:40.941Z,9.69
2022-11-17T00:34:14.787Z,9.90
2022-11-17T00:36:47.578Z,9.78
2022-11-17T00:39:16.807Z,9.91
2022-11-17T00:41:44.738Z,10.04
2022-11-17T00:44:13.097Z,10.12
2022-11-17T00:46:43.279Z,10.07
2022-11-17T00:49:14.560Z,10.05
2022-11-17T00:51:42.937Z,10.18
2022-11-17T00:54:13.662Z,10.12
2022-11-17T00:56:41.930Z,10.18
2022-11-17T00:59:10.116Z,10.30
2022-11-17T01:01:39.602Z,10.26
2022-11-17T01:04:08.688Z,10.14
2022-11-17T01:06:38.741Z,9.94
2022-11-17T01:09:08.360Z,9.94
2022-11-17T01:11:37.482Z,9.97
2022-11-17T01:14:05.623Z,9.96
2022-11-17T01:16:34.459Z,9.60
2022-11-17T01:19:04.256Z,10.04
2022-11-17T01:21:32.881Z,9.97
2022-11-17T01:24:03.068Z,10.13
2022-11-17T01:26:33.085Z,10.08
2022-11-17T01:29:02.920Z,10.04
2022-11-17T01:31:33.068Z,10.11
2022-11-17T01:34:01.591Z,10.28
2022-11-17T01:36:51.458Z,10.25
2022-11-17T01:39:19.428Z,10.18
2022-11-17T01:41:47.668Z,10.30
2022-11-17T01:44:58.248Z,10.37
2022-11-17T01:47:34.390Z,10.18
2022-11-17T01:50:07.746Z,10.32
2022-11-17T01:52:37.230Z,10.32
2022-11-17T01:55:09.695Z,10.31
2022-11-17T01:57:43.347Z,10.35
2022-11-17T02:00:15.845Z,10.34
2022-11-17T02:02:47.616Z,10.53
2022-11-17T02:05:34.120Z,10.48
2022-11-17T02:08:05.860Z,10.47
2022-11-17T02:10:35.904Z,10.48
2022-11-17T02:13:04.100Z,10.23
2022-11-17T02:15:32.497Z,10.40
2022-11-17T02:18:02.415Z,10.41
2022-11-17T02:20:47.523Z,10.45
2022-11-17T02:23:58.685Z,10.52
2022-11-17T02:26:58.939Z,10.44
2022-11-17T02:29:36.386Z,10.38
2022-11-17T02:32:08.590Z,10.31
2022-11-17T02:34:45.621Z,10.13
2022-11-17T02:37:22.680Z,10.22
2022-11-17T02:40:00.283Z,10.14
2022-11-17T02:42:54.011Z,10.13
2022-11-17T02:45:29.970Z,10.17
2022-11-17T02:48:00.763Z,10.02
2022-11-17T02:50:30.776Z,9.98
2022-11-17T02:52:58.574Z,9.85
2022-11-17T02:55:27.612Z,9.87
2022-11-17T02:57:55.394Z,9.93
2022-11-17T03:00:24.712Z,9.94
2022-11-17T03:03:21.013Z,9.72
2022-11-17T03:05:57.747Z,9.72
2022-11-17T03:08:33.265Z,9.75
2022-11-17T03:11:03.682Z,9.83
2022-11-17T03:13:43.168Z,9.88
2022-11-17T03:16:23.248Z,9.90
2022-11-17T03:19:04.453Z,10.17
2022-11-17T03:21:37.893Z,10.29
2022-11-17T03:24:12.509Z,10.36
2022-11-17T03:26:44.741Z,10.54
2022-11-17T03:29:16.015Z,10.54
2022-11-17T03:31:48.574Z,10.59
2022-11-17T03:34:19.549Z,10.62
2022-11-17T03:36:51.211Z,10.68
2022-11-17T03:39:24.652Z,10.65
2022-11-17T03:41:57.620Z,10.56
2022-11-17T03:44:30.257Z,10.27
2022-11-17T03:47:03.326Z,10.29
2022-11-17T03:49:39.015Z,10.19
2022-11-17T03:52:07.027Z,10.17
2022-11-17T03:54:35.597Z,10.09
2022-11-17T03:57:08.567Z,10.09
2022-11-17T03:59:43.798Z,10.23
2022-11-17T04:02:19.319Z,10.38
2022-11-17T04:05:05.091Z,10.42
2022-11-17T04:07:33.041Z,10.39
2022-11-17T04:10:00.987Z,10.39
2022-11-17T04:12:46.627Z,10.45
2022-11-17T04:15:31.939Z,10.52
2022-11-17T04:18:01.241Z,10.57
2022-11-17T04:20:36.010Z,10.68
2022-11-17T04:23:11.316Z,10.50
2022-11-17T04:25:59.017Z,10.56
2022-11-17T04:28:40.053Z,10.68
2022-11-17T04:31:11.140Z,10.71
2022-11-17T04:33:41.931Z,10.70
2022-11-17T04:36:14.112Z,10.79
2022-11-17T04:38:43.446Z,10.84
2022-11-17T04:41:32.555Z,10.93
2022-11-17T04:44:01.681Z,10.91
2022-11-17T04:46:31.342Z,10.96
2022-11-17T04:49:01.358Z,11.00
2022-11-17T04:51:30.786Z,11.04
2022-11-17T04:53:59.449Z,11.01
2022-11-17T04:56:28.809Z,10.99
2022-11-17T04:58:58.994Z,11.02
2022-11-17T05:01:28.122Z,10.97
2022-11-17T05:03:57.926Z,11.00
2022-11-17T05:06:29.728Z,11.06
2022-11-17T05:08:57.963Z,10.97
2022-11-17T05:11:45.105Z,11.04
2022-11-17T05:14:14.858Z,11.04
2022-11-17T05:17:04.523Z,11.06
2022-11-17T05:19:38.106Z,10.95
2022-11-17T05:22:28.450Z,10.98
2022-11-17T05:24:55.874Z,11.00
2022-11-17T05:27:24.896Z,11.07
2022-11-17T05:29:52.838Z,11.03
2022-11-17T05:32:21.030Z,11.06
2022-11-17T05:34:48.964Z,10.99
2022-11-17T05:37:18.146Z,11.00
2022-11-17T05:39:45.929Z,10.98
2022-11-17T05:42:13.716Z,10.66
2022-11-17T05:44:41.502Z,10.81
2022-11-17T05:47:09.323Z,10.88
2022-11-17T05:49:37.090Z,10.95
2022-11-17T05:52:04.997Z,11.02
2022-11-17T05:54:34.178Z,10.97
2022-11-17T05:57:06.406Z,10.93
2022-11-17T05:59:37.841Z,10.94
2022-11-17T06:02:10.318Z,10.96
2022-11-17T06:04:38.999Z,10.95
2022-11-17T06:07:07.026Z,11.07
2022-11-17T06:09:40.683Z,11.00
2022-11-17T06:12:08.820Z,11.02
2022-11-17T06:14:37.668Z,11.09
2022-11-17T06:17:10.582Z,11.09
2022-11-17T06:19:42.516Z,10.98
2022-11-17T06:22:13.057Z,11.09
2022-11-17T06:24:44.041Z,11.13
2022-11-17T06:27:12.986Z,11.20
2022-11-17T06:29:44.601Z,11.24
2022-11-17T06:32:13.925Z,11.22
2022-11-17T06:34:42.313Z,11.13
2022-11-17T06:37:11.268Z,11.03
2022-11-17T06:39:39.118Z,10.93
2022-11-17T06:42:08.335Z,11.14
2022-11-17T06:44:36.155Z,11.19
2022-11-17T06:47:03.976Z,11.05
2022-11-17T06:49:31.791Z,11.10
2022-11-17T06:51:59.726Z,11.23
2022-11-17T06:54:27.577Z,11.19
2022-11-17T06:56:56.105Z,11.29
2022-11-17T06:59:27.590Z,11.35
2022-11-17T07:01:55.477Z,11.25
2022-11-17T07:04:23.350Z,11.24
2022-11-17T07:06:51.363Z,11.11
2022-11-17T07:09:20.083Z,11.18
2022-11-17T07:11:48.110Z,11.20
2022-11-17T07:14:15.977Z,11.19
2022-11-17T07:16:45.400Z,11.35
2022-11-17T07:19:13.661Z,11.26
2022-11-17T07:21:41.643Z,11.19
2022-11-17T07:24:09.831Z,11.25
2022-11-17T07:26:37.692Z,11.34
2022-11-17T07:29:08.208Z,11.30
2022-11-17T07:31:36.774Z,11.28
2022-11-17T07:34:06.018Z,11.43
2022-11-17T07:36:34.606Z,11.46
2022-11-17T07:39:03.269Z,11.59
2022-11-17T07:41:32.073Z,11.73
2022-11-17T07:44:00.312Z,11.86
2022-11-17T07:46:28.203Z,11.61
2022-11-17T07:48:56.249Z,11.74
2022-11-17T07:51:26.321Z,11.85
2022-11-17T07:53:54.252Z,11.86
2022-11-17T07:56:22.212Z,11.96
2022-11-17T07:58:50.179Z,12.10
2022-11-17T08:01:18.226Z,12.06
2022-11-17T08:03:46.426Z,11.95
2022-11-17T08:06:14.599Z,12.13
2022-11-17T08:08:43.804Z,12.17
2022-11-17T08:11:13.635Z,12.30
2022-11-17T08:13:42.275Z,12.23
2022-11-17T08:16:12.354Z,12.31
2022-11-17T08:18:40.831Z,12.25
2022-11-17T08:21:10.689Z,12.36
2022-11-17T08:23:39.113Z,12.21
2022-11-17T08:26:09.897Z,12.35
2022-11-17T08:28:38.537Z,12.44
2022-11-17T08:31:08.175Z,12.51
2022-11-17T08:33:36.271Z,12.48
2022-11-17T08:36:07.040Z,12.47
2022-11-17T08:38:36.269Z,12.54
2022-11-17T08:41:06.502Z,12.50
2022-11-17T08:43:36.519Z,12.59
2022-11-17T08:46:05.210Z,12.49
2022-11-17T08:48:34.768Z,12.58
2022-11-17T08:51:07.102Z,12.61
2022-11-17T08:53:36.331Z,12.59
2022-11-17T08:56:08.390Z,12.74
2022-11-17T08:58:44.569Z,12.77
2022-11-17T09:01:16.281Z,12.74
2022-11-17T09:03:45.727Z,12.74
2022-11-17T09:06:15.285Z,12.91
2022-11-17T09:08:46.132Z,12.91
2022-11-17T09:11:16.653Z,13.06
2022-11-17T09:13:47.409Z,13.00
2022-11-17T09:16:16.847Z,13.09
2022-11-17T09:18:45.367Z,13.23
2022-11-17T09:21:15.730Z,13.26
2022-11-17T09:23:44.097Z,13.20
2022-11-17T09:26:14.257Z,13.31
2022-11-17T09:28:42.182Z,13.21
2022-11-17T09:31:14.001Z,13.37
2022-11-17T09:33:42.451Z,13.46
2022-11-17T09:36:11.007Z,13.59
2022-11-17T09:38:42.951Z,13.57
2022-11-17T09:41:21.298Z,13.66
2022-11-17T09:43:55.428Z,13.61
2022-11-17T09:46:28.790Z,13.47
2022-11-17T09:49:04.661Z,13.61
2022-11-17T09:51:36.246Z,13.67
2022-11-17T09:54:11.401Z,13.58
2022-11-17T09:56:41.126Z,13.54
2022-11-17T09:59:15.310Z,13.54
2022-11-17T10:01:44.762Z,13.47
2022-11-17T10:04:16.901Z,13.59
2022-11-17T10:06:51.409Z,13.76
2022-11-17T10:09:28.647Z,13.83
2022-11-17T10:12:08.726Z,13.84
2022-11-17T10:14:41.173Z,14.39
2022-11-17T10:17:12.812Z,14.55
2022-11-17T10:19:41.144Z,14.68
2022-11-17T10:22:25.988Z,15.11
2022-11-17T10:24:57.776Z,15.45
2022-11-17T10:27:28.839Z,15.54
2022-11-17T10:30:01.204Z,15.16
2022-11-17T10:32:32.860Z,15.90
2022-11-17T10:35:15.257Z,15.80
2022-11-17T10:37:46.555Z,15.58
2022-11-17T10:40:23.801Z,16.01
2022-11-17T10:43:01.241Z,15.82
2022-11-17T10:45:29.897Z,15.53
2022-11-17T10:48:25.467Z,15.23
2022-11-17T10:50:55.795Z,14.91
2022-11-17T10:53:42.830Z,14.96
2022-11-17T10:56:16.848Z,15.21
2022-11-17T10:59:01.098Z,15.14
2022-11-17T11:01:33.580Z,14.58
2022-11-17T11:04:03.798Z,15.33
2022-11-17T11:06:33.645Z,15.60
2022-11-17T11:09:05.568Z,15.77
2022-11-17T11:11:44.475Z,15.98
2022-11-17T11:14:19.368Z,15.92
2022-11-17T11:16:48.981Z,15.74
2022-11-17T11:19:20.522Z,16.01
2022-11-17T11:22:13.779Z,16.51
2022-11-17T11:24:55.966Z,16.62
2022-11-17T11:27:33.603Z,16.85
2022-11-17T11:30:04.460Z,16.85
2022-11-17T11:32:50.616Z,16.50
2022-11-17T11:35:38.187Z,16.43
2022-11-17T11:38:17.413Z,16.15
2022-11-17T11:40:56.176Z,16.87
2022-11-17T11:43:36.988Z,16.02
2022-11-17T11:46:15.827Z,16.47
2022-11-17T11:48:43.813Z,16.36
2022-11-17T11:51:18.537Z,16.41
2022-11-17T11:53:53.662Z,16.45
2022-11-17T11:56:26.898Z,17.10
2022-11-17T11:59:00.039Z,17.35
2022-11-17T12:01:29.859Z,17.04
2022-11-17T12:04:15.410Z,16.63
2022-11-17T12:06:54.417Z,16.99
2022-11-17T12:09:54.359Z,16.95
2022-11-17T12:12:28.923Z,16.73
2022-11-17T12:15:26.036Z,17.36
2022-11-17T12:18:00.002Z,17.37
2022-11-17T12:20:50.749Z,17.05
2022-11-17T12:23:30.036Z,17.77
2022-11-17T12:26:00.157Z,17.54
2022-11-17T12:28:34.219Z,17.21
2022-11-17T12:31:09.460Z,16.91
2022-11-17T12:34:14.389Z,16.80
2022-11-17T12:36:42.449Z,16.79
2022-11-17T12:39:49.972Z,17.21
2022-11-17T12:42:17.783Z,16.69
2022-11-17T12:45:07.932Z,16.69
2022-11-17T12:47:37.622Z,16.99
2022-11-17T12:50:53.687Z,17.03
2022-11-17T12:53:43.187Z,16.83
2022-11-17T12:56:38.364Z,17.19
2022-11-17T12:59:31.348Z,17.18
2022-11-17T13:02:11.484Z,17.57
2022-11-17T13:04:49.314Z,16.88
2022-11-17T13:07:21.173Z,16.85
2022-11-17T13:09:51.881Z,17.04
2022-11-17T13:12:25.561Z,17.51
2022-11-17T13:14:55.817Z,17.32
2022-11-17T13:17:28.901Z,17.13
2022-11-17T13:20:04.913Z,17.29
2022-11-17T13:22:35.367Z,16.92
2022-11-17T13:25:21.491Z,16.93
2022-11-17T13:27:56.023Z,17.05
2022-11-17T13:30:28.172Z,16.65
2022-11-17T13:32:57.209Z,16.51
2022-11-17T13:35:27.839Z,16.84
2022-11-17T13:38:03.928Z,16.66
2022-11-17T13:40:32.889Z,16.62
2022-11-17T13:43:03.049Z,16.52
2022-11-17T13:45:31.005Z,16.63
2022-11-17T13:47:59.516Z,16.67
2022-11-17T13:50:37.072Z,16.56
2022-11-17T13:53:24.979Z,16.42
2022-11-17T13:55:53.729Z,16.63
2022-11-17T13:58:28.588Z,16.44
2022-11-17T14:01:00.040Z,16.37
2022-11-17T14:03:39.591Z,15.81
2022-11-17T14:06:10.501Z,16.05
2022-11-17T14:08:40.715Z,16.01
2022-11-17T14:11:16.521Z,15.91
2022-11-17T14:13:47.870Z,15.85
2022-11-17T14:16:26.230Z,15.87
2022-11-17T14:18:59.831Z,16.05
2022-11-17T14:21:29.246Z,15.87
2022-11-17T14:24:12.663Z,15.61
2022-11-17T14:26:45.408Z,15.57
2022-11-17T14:29:14.885Z,15.94
2022-11-17T14:31:43.218Z,15.93
2022-11-17T14:34:11.094Z,15.91
2022-11-17T14:36:40.333Z,15.69
2022-11-17T14:39:15.460Z,15.62
2022-11-17T14:41:43.912Z,15.81
2022-11-17T14:44:15.719Z,15.90
2022-11-17T14:46:44.105Z,15.69
2022-11-17T14:49:12.187Z,15.53
2022-11-17T14:51:40.303Z,15.18
2022-11-17T14:54:08.118Z,15.37
2022-11-17T14:56:35.895Z,15.37
2022-11-17T14:59:03.690Z,15.34
2022-11-17T15:01:38.494Z,15.25
2022-11-17T15:04:34.641Z,15.33
2022-11-17T15:06:55.308Z,15.15
2022-11-17T15:09:23.206Z,15.21
2022-11-17T15:11:52.094Z,15.22
2022-11-17T15:14:20.291Z,15.26
2022-11-17T15:16:49.627Z,15.24
2022-11-17T15:19:17.734Z,15.28
2022-11-17T15:21:45.621Z,14.95
2022-11-17T15:24:13.969Z,15.04
2022-11-17T15:26:45.030Z,15.01
2022-11-17T15:29:15.280Z,14.99
2022-11-17T15:31:44.305Z,15.04
2022-11-17T15:34:19.860Z,14.83
2022-11-17T15:36:48.484Z,14.85
2022-11-17T15:39:16.702Z,14.12
2022-11-17T15:41:45.108Z,14.44
2022-11-17T15:44:13.642Z,13.94
2022-11-17T15:46:46.950Z,14.17
2022-11-17T15:49:17.035Z,14.22
2022-11-17T15:51:47.913Z,13.75
2022-11-17T15:54:20.365Z,14.00
2022-11-17T15:56:50.872Z,13.73
2022-11-17T15:59:19.221Z,13.91
2022-11-17T16:01:47.642Z,13.65
2022-11-17T16:04:17.262Z,13.61
2022-11-17T16:06:47.627Z,13.54
2022-11-17T16:09:18.076Z,14.12
2022-11-17T16:11:46.390Z,13.90
2022-11-17T16:14:15.087Z,13.84
2022-11-17T16:16:43.715Z,14.36
2022-11-17T16:19:11.635Z,14.61
2022-11-17T16:21:40.887Z,14.69
2022-11-17T16:24:12.346Z,14.08
2022-11-17T16:26:40.263Z,13.72
2022-11-17T16:29:08.903Z,13.82
2022-11-17T16:31:38.027Z,13.71
2022-11-17T16:34:12.836Z,14.28
2022-11-17T16:36:43.261Z,13.96
2022-11-17T16:39:16.576Z,13.22
2022-11-17T16:41:46.364Z,14.07
2022-11-17T16:44:16.696Z,14.24
2022-11-17T16:46:46.265Z,14.37
2022-11-17T16:49:16.492Z,14.55
2022-11-17T16:51:49.410Z,14.16
2022-11-17T16:54:18.163Z,14.29
2022-11-17T16:56:46.112Z,14.28
2022-11-17T16:59:14.855Z,14.47
2022-11-17T17:01:43.035Z,14.67
2022-11-17T17:04:12.820Z,14.69
2022-11-17T17:06:41.556Z,13.97
2022-11-17T17:09:12.697Z,14.02
2022-11-17T17:11:41.016Z,14.39
2022-11-17T17:14:12.919Z,14.37
2022-11-17T17:16:42.098Z,14.06
2022-11-17T17:19:11.668Z,14.18
2022-11-17T17:21:40.820Z,13.87
2022-11-17T17:24:10.783Z,14.12
2022-11-17T17:26:39.297Z,14.37
2022-11-17T17:29:08.414Z,14.32
2022-11-17T17:31:38.273Z,14.55
2022-11-17T17:34:07.349Z,14.61
2022-11-17T17:36:37.097Z,14.75
2022-11-17T17:39:06.098Z,14.75
2022-11-17T17:41:40.128Z,14.61
2022-11-17T17:44:09.633Z,14.34
2022-11-17T17:46:39.398Z,14.38
2022-11-17T17:49:07.898Z,14.47
2022-11-17T17:51:39.919Z,14.69
2022-11-17T17:54:08.182Z,14.55
2022-11-17T17:56:37.424Z,14.77
2022-11-17T17:59:05.276Z,14.88
2022-11-17T18:01:37.460Z,14.89
2022-11-17T18:04:05.852Z,14.76
2022-11-17T18:06:37.811Z,14.69
2022-11-17T18:09:06.337Z,14.82
2022-11-17T18:11:35.528Z,14.96
2022-11-17T18:14:05.545Z,14.84
2022-11-17T18:16:38.497Z,14.87
2022-11-17T18:19:08.953Z,14.75
2022-11-17T18:21:37.077Z,14.72
2022-11-17T18:24:05.586Z,14.73
2022-11-17T18:26:35.391Z,14.81
2022-11-17T18:29:06.871Z,14.85
2022-11-17T18:31:36.922Z,14.91
2022-11-17T18:34:06.614Z,14.67
2022-11-17T18:36:34.969Z,14.48
2022-11-17T18:39:03.616Z,14.70
2022-11-17T18:41:33.902Z,14.88
2022-11-17T18:44:02.430Z,14.82
2022-11-17T18:46:33.585Z,14.69
2022-11-17T18:49:02.098Z,14.70
2022-11-17T18:51:31.408Z,14.41
2022-11-17T18:54:01.075Z,14.18
2022-11-17T18:56:33.219Z,14.05
2022-11-17T18:59:01.029Z,14.13
2022-11-17T19:01:31.757Z,13.89
2022-11-17T19:04:01.314Z,13.28
2022-11-17T19:06:29.853Z,13.58
2022-11-17T19:08:59.884Z,13.79
2022-11-17T19:11:30.723Z,13.83
2022-11-17T19:14:02.194Z,14.22
2022-11-17T19:16:32.515Z,14.27
2022-11-17T19:19:00.634Z,13.75
2022-11-17T19:21:30.065Z,14.12
2022-11-17T19:23:59.770Z,13.97
2022-11-17T19:26:28.937Z,14.25
2022-11-17T19:28:57.500Z,14.51
2022-11-17T19:31:25.937Z,14.61
2022-11-17T19:33:56.429Z,14.17
2022-11-17T19:36:26.492Z,14.42
2022-11-17T19:38:55.872Z,14.63
2022-11-17T19:41:25.490Z,14.39
2022-11-17T19:43:54.344Z,13.42
2022-11-17T19:46:23.617Z,13.45
2022-11-17T19:48:52.090Z,12.93
2022-11-17T19:51:23.629Z,13.24
2022-11-17T19:53:52.983Z,13.40
2022-11-17T19:56:21.544Z,13.15
2022-11-17T19:58:50.410Z,13.29
2022-11-17T20:01:20.943Z,13.25
2022-11-17T20:03:50.468Z,13.53
2022-11-17T20:06:22.278Z,13.24
2022-11-17T20:08:50.629Z,13.49
2022-11-17T20:11:29.194Z,13.18
2022-11-17T20:13:57.501Z,13.07
2022-11-17T20:16:26.799Z,13.36
2022-11-17T20:18:56.278Z,13.40
2022-11-17T20:21:26.689Z,13.20
2022-11-17T20:23:55.195Z,13.39
2022-11-17T20:26:24.960Z,13.27
2022-11-17T20:28:53.659Z,13.42
2022-11-17T20:31:24.301Z,13.36
2022-11-17T20:33:56.364Z,13.58
2022-11-17T20:36:25.884Z,12.94
2022-11-17T20:38:57.754Z,13.19
2022-11-17T20:41:26.173Z,13.41
2022-11-17T20:43:56.099Z,12.72
2022-11-17T20:46:24.544Z,13.05
2022-11-17T20:48:53.035Z,13.21
2022-11-17T20:51:23.235Z,13.03
2022-11-17T20:53:52.657Z,12.63
2022-11-17T20:56:21.182Z,12.42
2022-11-17T20:58:49.253Z,12.34
2022-11-17T21:01:18.406Z,12.51
2022-11-17T21:03:46.824Z,12.81
2022-11-17T21:06:16.979Z,12.50
2022-11-17T21:08:46.521Z,12.74
2022-11-17T21:11:37.716Z,12.50
2022-11-17T21:14:06.874Z,12.49
2022-11-17T21:16:36.699Z,12.46
2022-11-17T21:19:04.957Z,12.50
2022-11-17T21:21:32.831Z,12.76
2022-11-17T21:24:00.735Z,12.84
2022-11-17T21:26:30.211Z,12.53
2022-11-17T21:29:01.870Z,12.18
2022-11-17T21:31:34.687Z,12.29
2022-11-17T21:34:06.210Z,12.41
2022-11-17T21:36:35.824Z,12.12
2022-11-17T21:39:04.292Z,11.85
2022-11-17T21:41:36.148Z,11.87
2022-11-17T21:44:04.768Z,11.95
2022-11-17T21:46:34.478Z,12.00
2022-11-17T21:49:02.358Z,11.83
2022-11-17T21:51:35.075Z,11.75
2022-11-17T21:54:04.898Z,11.81
2022-11-17T21:56:34.122Z,11.57
2022-11-17T21:59:05.845Z,11.41
2022-11-17T22:01:34.771Z,11.06
2022-11-17T22:04:02.951Z,10.84
2022-11-17T22:06:31.014Z,10.91
2022-11-17T22:09:00.177Z,10.83
2022-11-17T22:11:39.092Z,11.10
2022-11-17T22:14:14.244Z,10.93
2022-11-17T22:16:44.052Z,11.25
2022-11-17T22:19:13.651Z,11.13
2022-11-17T22:21:42.188Z,11.35
2022-11-17T22:24:11.922Z,11.27
2022-11-17T22:26:41.263Z,11.06
2022-11-17T22:29:13.146Z,11.18
2022-11-17T22:31:41.178Z,11.25
2022-11-17T22:34:09.103Z,11.14
2022-11-17T22:36:37.849Z,11.27
2022-11-17T22:39:06.162Z,11.18
2022-11-17T22:41:35.384Z,11.18
2022-11-17T22:44:03.557Z,11.47
2022-11-17T22:46:33.014Z,11.56
2022-11-17T22:49:00.877Z,11.56
2022-11-17T22:51:46.106Z,11.76
2022-11-17T22:54:14.037Z,11.79
2022-11-17T22:56:41.920Z,11.74
2022-11-17T22:59:09.802Z,12.09
2022-11-17T23:01:39.193Z,12.27
2022-11-17T23:04:07.317Z,12.04
2022-11-17T23:06:35.103Z,12.11
2022-11-17T23:09:02.983Z,12.34
2022-11-17T23:11:36.986Z,12.47
2022-11-17T23:14:06.461Z,12.55
2022-11-17T23:16:34.525Z,12.11
2022-11-17T23:19:04.079Z,12.34
2022-11-17T23:21:31.961Z,12.42
2022-11-17T23:23:59.856Z,12.38
2022-11-17T23:26:27.659Z,12.50
2022-11-17T23:28:55.479Z,12.12
2022-11-17T23:31:23.319Z,12.31
2022-11-17T23:33:51.140Z,12.36
2022-11-17T23:36:22.235Z,12.38
2022-11-17T23:38:51.502Z,12.11
2022-11-17T23:41:20.853Z,11.73
2022-11-17T23:43:50.966Z,11.50
2022-11-17T23:46:21.209Z,11.57
2022-11-17T23:48:49.449Z,11.47
2022-11-17T23:51:18.856Z,11.59
2022-11-17T23:53:49.383Z,11.65
2022-11-17T23:56:18.324Z,11.81
2022-11-17T23:58:46.214Z,11.96
